Dronten, Netherlands
Current Conditions -  °F | °C
As of 7:25 AM on Monday 26 Jan 2015 (Local Time) from EHDL Reporting Station
Moderate Fog Moderate Fog  
Wind Chill: 30°   Ceiling: Unl
Heat Index: 37°   Visibility: 0.4mi
Dew Point: 37°   Wind: 10mph
Humidity: 100%   Direction: 200°SSW
Pressure: 30.12"   Gusts: NA
Location:  52.53°N, 5.72°E
Report Text: EHDL 260625Z AUTO 20009KT 0650 FG OVC000 03/03 Q1020 RED
Loading
Personal Weather Stations






























Interactive Weather Map New forecast layout! Learn more

10-Day Weather Forecast

Advertisements
Track Severe Weather on mobile